sensor_id;sensor_type;location;lat;lon;timestamp;pressure;altitude;pressure_sealevel;temperature;humidity
76378;BME280;65200;49.500;8.654;2023-02-01T00:01:42;101195.94;;;4.53;86.73
76378;BME280;65200;49.500;8.654;2023-02-01T00:04:08;101200.69;;;4.59;87.75
76378;BME280;65200;49.500;8.654;2023-02-01T00:06:35;101190.81;;;4.61;86.70
76378;BME280;65200;49.500;8.654;2023-02-01T00:09:01;101188.16;;;4.61;86.47
76378;BME280;65200;49.500;8.654;2023-02-01T00:11:29;101193.31;;;4.62;86.62
76378;BME280;65200;49.500;8.654;2023-02-01T00:13:56;101177.03;;;4.67;86.15
76378;BME280;65200;49.500;8.654;2023-02-01T00:16:24;101178.41;;;4.71;87.58
76378;BME280;65200;49.500;8.654;2023-02-01T00:18:55;101173.44;;;4.87;85.98
76378;BME280;65200;49.500;8.654;2023-02-01T00:21:22;101169.56;;;4.91;85.12
76378;BME280;65200;49.500;8.654;2023-02-01T00:23:49;101170.78;;;4.87;85.59
76378;BME280;65200;49.500;8.654;2023-02-01T00:26:17;101172.50;;;4.88;86.45
76378;BME280;65200;49.500;8.654;2023-02-01T00:28:45;101170.66;;;4.88;86.43
76378;BME280;65200;49.500;8.654;2023-02-01T00:31:13;101167.88;;;4.90;85.63
76378;BME280;65200;49.500;8.654;2023-02-01T00:33:40;101159.75;;;4.91;86.62
76378;BME280;65200;49.500;8.654;2023-02-01T00:36:07;101158.09;;;4.90;86.83
76378;BME280;65200;49.500;8.654;2023-02-01T00:38:37;101162.69;;;4.88;86.02
76378;BME280;65200;49.500;8.654;2023-02-01T00:41:05;101149.97;;;4.82;86.05
76378;BME280;65200;49.500;8.654;2023-02-01T00:43:32;101156.13;;;4.83;86.13
76378;BME280;65200;49.500;8.654;2023-02-01T00:46:00;101160.59;;;4.82;86.53
76378;BME280;65200;49.500;8.654;2023-02-01T00:48:27;101167.84;;;4.80;87.55
76378;BME280;65200;49.500;8.654;2023-02-01T00:50:53;101160.00;;;4.79;87.03
76378;BME280;65200;49.500;8.654;2023-02-01T00:53:20;101160.72;;;4.81;86.27
76378;BME280;65200;49.500;8.654;2023-02-01T00:55:46;101161.28;;;4.84;86.59
76378;BME280;65200;49.500;8.654;2023-02-01T00:58:13;101170.50;;;4.80;87.41
76378;BME280;65200;49.500;8.654;2023-02-01T01:00:40;101170.22;;;4.83;86.01
76378;BME280;65200;49.500;8.654;2023-02-01T01:03:08;101167.56;;;4.83;87.26
76378;BME280;65200;49.500;8.654;2023-02-01T01:05:44;101163.09;;;4.84;85.95
76378;BME280;65200;49.500;8.654;2023-02-01T01:08:10;101165.03;;;4.82;86.93
76378;BME280;65200;49.500;8.654;2023-02-01T01:10:36;101165.19;;;4.80;87.43
76378;BME280;65200;49.500;8.654;2023-02-01T01:13:03;101165.75;;;4.84;86.30
76378;BME280;65200;49.500;8.654;2023-02-01T01:15:29;101157.22;;;4.80;86.48
76378;BME280;65200;49.500;8.654;2023-02-01T01:17:56;101161.44;;;4.83;87.34
76378;BME280;65200;49.500;8.654;2023-02-01T01:20:23;101166.47;;;4.86;86.77
76378;BME280;65200;49.500;8.654;2023-02-01T01:22:50;101154.72;;;4.88;87.07
76378;BME280;65200;49.500;8.654;2023-02-01T01:25:16;101156.94;;;4.83;86.15
76378;BME280;65200;49.500;8.654;2023-02-01T01:27:43;101154.00;;;4.86;86.86
76378;BME280;65200;49.500;8.654;2023-02-01T01:30:10;101157.66;;;4.85;86.08
76378;BME280;65200;49.500;8.654;2023-02-01T01:32:37;101155.56;;;4.89;86.12
76378;BME280;65200;49.500;8.654;2023-02-01T01:35:04;101152.06;;;4.88;86.38
76378;BME280;65200;49.500;8.654;2023-02-01T01:37:31;101144.09;;;4.88;87.32
76378;BME280;65200;49.500;8.654;2023-02-01T01:39:58;101147.16;;;4.84;86.28
76378;BME280;65200;49.500;8.654;2023-02-01T01:42:24;101158.09;;;4.90;86.17
76378;BME280;65200;49.500;8.654;2023-02-01T01:44:59;101147.47;;;4.90;86.47
76378;BME280;65200;49.500;8.654;2023-02-01T01:47:30;101144.09;;;4.88;86.17
76378;BME280;65200;49.500;8.654;2023-02-01T01:49:58;101133.34;;;4.90;87.03
76378;BME280;65200;49.500;8.654;2023-02-01T01:52:24;101129.88;;;4.89;85.97
76378;BME280;65200;49.500;8.654;2023-02-01T01:54:52;101136.84;;;4.90;86.20
76378;BME280;65200;49.500;8.654;2023-02-01T01:57:23;101127.59;;;4.85;87.00
76378;BME280;65200;49.500;8.654;2023-02-01T01:59:55;101113.34;;;4.86;86.33
76378;BME280;65200;49.500;8.654;2023-02-01T02:02:24;101116.16;;;4.84;87.48
76378;BME280;65200;49.500;8.654;2023-02-01T02:04:51;101113.50;;;4.84;86.33
76378;BME280;65200;49.500;8.654;2023-02-01T02:07:21;101123.41;;;4.82;87.12
76378;BME280;65200;49.500;8.654;2023-02-01T02:09:48;101118.50;;;4.78;86.65
76378;BME280;65200;49.500;8.654;2023-02-01T02:12:16;101122.97;;;4.77;87.65
76378;BME280;65200;49.500;8.654;2023-02-01T02:14:42;101114.00;;;4.78;86.61
76378;BME280;65200;49.500;8.654;2023-02-01T02:17:25;101121.97;;;4.78;87.25
76378;BME280;65200;49.500;8.654;2023-02-01T02:20:28;101127.28;;;4.78;87.61
76378;BME280;65200;49.500;8.654;2023-02-01T02:23:21;101113.34;;;4.76;86.71
76378;BME280;65200;49.500;8.654;2023-02-01T02:26:11;101109.13;;;4.74;86.86
76378;BME280;65200;49.500;8.654;2023-02-01T02:31:54;101117.50;;;4.69;88.13
76378;BME280;65200;49.500;8.654;2023-02-01T02:34:28;101107.00;;;4.68;87.05
76378;BME280;65200;49.500;8.654;2023-02-01T02:37:04;101101.28;;;4.72;86.68
76378;BME280;65200;49.500;8.654;2023-02-01T02:39:41;101096.13;;;4.71;86.70
76378;BME280;65200;49.500;8.654;2023-02-01T02:42:15;101085.78;;;4.68;87.98
76378;BME280;65200;49.500;8.654;2023-02-01T02:45:06;101082.53;;;4.64;87.04
76378;BME280;65200;49.500;8.654;2023-02-01T02:47:57;101069.25;;;4.64;86.93
76378;BME280;65200;49.500;8.654;2023-02-01T02:50:34;101056.25;;;4.61;87.41
76378;BME280;65200;49.500;8.654;2023-02-01T02:53:23;101069.25;;;4.64;87.64
76378;BME280;65200;49.500;8.654;2023-02-01T02:56:09;101074.56;;;4.64;87.46
76378;BME280;65200;49.500;8.654;2023-02-01T02:58:55;101069.97;;;4.66;87.89
76378;BME280;65200;49.500;8.654;2023-02-01T03:01:40;101070.81;;;4.67;88.73
76378;BME280;65200;49.500;8.654;2023-02-01T03:04:24;101066.19;;;4.69;87.70
76378;BME280;65200;49.500;8.654;2023-02-01T03:06:53;101065.09;;;4.71;87.16
76378;BME280;65200;49.500;8.654;2023-02-01T03:09:24;101061.88;;;4.68;88.34
76378;BME280;65200;49.500;8.654;2023-02-01T03:11:58;101062.72;;;4.68;88.84
76378;BME280;65200;49.500;8.654;2023-02-01T03:14:46;101058.81;;;4.72;87.11
76378;BME280;65200;49.500;8.654;2023-02-01T03:17:17;101068.72;;;4.70;87.19
76378;BME280;65200;49.500;8.654;2023-02-01T03:19:46;101062.16;;;4.65;89.07
76378;BME280;65200;49.500;8.654;2023-02-01T03:22:18;101055.84;;;4.66;88.16
76378;BME280;65200;49.500;8.654;2023-02-01T03:24:47;101063.69;;;4.67;87.22
76378;BME280;65200;49.500;8.654;2023-02-01T03:27:18;101057.56;;;4.67;87.91
76378;BME280;65200;49.500;8.654;2023-02-01T03:29:49;101053.19;;;4.66;87.84
76378;BME280;65200;49.500;8.654;2023-02-01T03:32:17;101057.66;;;4.65;88.19
76378;BME280;65200;49.500;8.654;2023-02-01T03:34:44;101054.31;;;4.63;87.96
76378;BME280;65200;49.500;8.654;2023-02-01T03:37:12;101047.19;;;4.64;88.98
76378;BME280;65200;49.500;8.654;2023-02-01T03:39:46;101055.13;;;4.64;88.51
76378;BME280;65200;49.500;8.654;2023-02-01T03:42:17;101048.16;;;4.63;88.39
76378;BME280;65200;49.500;8.654;2023-02-01T03:44:48;101051.81;;;4.62;89.11
76378;BME280;65200;49.500;8.654;2023-02-01T03:47:18;101061.56;;;4.61;88.87
76378;BME280;65200;49.500;8.654;2023-02-01T03:49:49;101069.41;;;4.63;88.67
76378;BME280;65200;49.500;8.654;2023-02-01T03:52:20;101067.72;;;4.62;89.10
76378;BME280;65200;49.500;8.654;2023-02-01T03:54:50;101069.00;;;4.67;87.78
76378;BME280;65200;49.500;8.654;2023-02-01T03:57:17;101063.69;;;4.67;88.05
76378;BME280;65200;49.500;8.654;2023-02-01T03:59:46;101064.41;;;4.69;89.15
76378;BME280;65200;49.500;8.654;2023-02-01T04:02:13;101058.94;;;4.71;88.32
76378;BME280;65200;49.500;8.654;2023-02-01T04:04:39;101055.72;;;4.67;88.06
76378;BME280;65200;49.500;8.654;2023-02-01T04:07:05;101059.94;;;4.70;88.11
76378;BME280;65200;49.500;8.654;2023-02-01T04:09:32;101060.75;;;4.70;88.28
76378;BME280;65200;49.500;8.654;2023-02-01T04:12:00;101057.97;;;4.72;88.07
76378;BME280;65200;49.500;8.654;2023-02-01T04:14:26;101057.41;;;4.68;88.27
76378;BME280;65200;49.500;8.654;2023-02-01T04:16:53;101061.88;;;4.68;88.59
76378;BME280;65200;49.500;8.654;2023-02-01T04:19:19;101058.38;;;4.67;89.77
76378;BME280;65200;49.500;8.654;2023-02-01T04:21:46;101046.09;;;4.66;88.95
76378;BME280;65200;49.500;8.654;2023-02-01T04:24:12;101046.78;;;4.68;89.73
76378;BME280;65200;49.500;8.654;2023-02-01T04:26:38;101048.75;;;4.66;88.94
76378;BME280;65200;49.500;8.654;2023-02-01T04:29:08;101046.09;;;4.66;89.66
76378;BME280;65200;49.500;8.654;2023-02-01T04:31:34;101039.22;;;4.64;90.09
76378;BME280;65200;49.500;8.654;2023-02-01T04:34:01;101039.22;;;4.64;88.92
76378;BME280;65200;49.500;8.654;2023-02-01T04:36:28;101048.16;;;4.63;90.19
76378;BME280;65200;49.500;8.654;2023-02-01T04:38:54;101045.38;;;4.64;90.18
76378;BME280;65200;49.500;8.654;2023-02-01T04:41:20;101048.47;;;4.69;89.93
76378;BME280;65200;49.500;8.654;2023-02-01T04:43:48;101054.63;;;4.70;88.58
76378;BME280;65200;49.500;8.654;2023-02-01T04:46:16;101053.78;;;4.69;88.40
76378;BME280;65200;49.500;8.654;2023-02-01T04:48:43;101052.78;;;4.70;88.58
76378;BME280;65200;49.500;8.654;2023-02-01T04:51:09;101052.94;;;4.69;88.89
76378;BME280;65200;49.500;8.654;2023-02-01T04:53:36;101045.53;;;4.72;88.23
76378;BME280;65200;49.500;8.654;2023-02-01T04:56:03;101048.19;;;4.72;89.14
76378;BME280;65200;49.500;8.654;2023-02-01T04:58:29;101041.22;;;4.71;88.46
76378;BME280;65200;49.500;8.654;2023-02-01T05:00:56;101040.50;;;4.69;89.38
76378;BME280;65200;49.500;8.654;2023-02-01T05:03:24;101050.13;;;4.70;89.78
76378;BME280;65200;49.500;8.654;2023-02-01T05:05:50;101047.63;;;4.69;89.59
76378;BME280;65200;49.500;8.654;2023-02-01T05:08:18;101037.97;;;4.68;90.18
76378;BME280;65200;49.500;8.654;2023-02-01T05:10:47;101050.69;;;4.64;90.60
76378;BME280;65200;49.500;8.654;2023-02-01T05:13:14;101063.97;;;4.64;90.98
76378;BME280;65200;49.500;8.654;2023-02-01T05:15:54;101069.13;;;4.66;89.81
76378;BME280;65200;49.500;8.654;2023-02-01T05:18:21;101075.16;;;4.68;90.04
76378;BME280;65200;49.500;8.654;2023-02-01T05:20:49;101077.94;;;4.66;91.20
76378;BME280;65200;49.500;8.654;2023-02-01T05:23:15;101077.47;;;4.52;92.47
76378;BME280;65200;49.500;8.654;2023-02-01T05:25:41;101081.03;;;4.41;92.86
76378;BME280;65200;49.500;8.654;2023-02-01T05:28:08;101081.59;;;4.35;92.33
76378;BME280;65200;49.500;8.654;2023-02-01T05:30:34;101086.91;;;4.35;92.74
76378;BME280;65200;49.500;8.654;2023-02-01T05:33:01;101095.72;;;4.36;93.87
76378;BME280;65200;49.500;8.654;2023-02-01T05:35:27;101105.47;;;4.35;93.60
76378;BME280;65200;49.500;8.654;2023-02-01T05:37:55;101107.94;;;4.57;92.04
76378;BME280;65200;49.500;8.654;2023-02-01T05:40:22;101117.88;;;4.55;92.44
76378;BME280;65200;49.500;8.654;2023-02-01T05:42:48;101096.06;;;4.52;92.00
76378;BME280;65200;49.500;8.654;2023-02-01T05:45:15;101084.41;;;4.43;92.50
76378;BME280;65200;49.500;8.654;2023-02-01T05:47:42;101095.03;;;4.43;93.97
76378;BME280;65200;49.500;8.654;2023-02-01T05:50:08;101066.69;;;4.44;93.53
76378;BME280;65200;49.500;8.654;2023-02-01T05:52:35;101072.13;;;4.42;93.39
76378;BME280;65200;49.500;8.654;2023-02-01T05:55:03;101064.03;;;4.44;92.27
76378;BME280;65200;49.500;8.654;2023-02-01T05:57:30;101069.63;;;4.41;91.70
76378;BME280;65200;49.500;8.654;2023-02-01T05:59:57;101054.78;;;4.38;92.00
76378;BME280;65200;49.500;8.654;2023-02-01T06:02:24;101057.88;;;4.43;91.35
76378;BME280;65200;49.500;8.654;2023-02-01T06:04:50;101051.34;;;4.47;91.57
76378;BME280;65200;49.500;8.654;2023-02-01T06:07:17;101051.22;;;4.49;92.63
76378;BME280;65200;49.500;8.654;2023-02-01T06:09:43;101047.03;;;4.56;92.16
76378;BME280;65200;49.500;8.654;2023-02-01T06:12:11;101050.22;;;4.50;93.00
76378;BME280;65200;49.500;8.654;2023-02-01T06:14:37;101043.63;;;4.44;92.71
76378;BME280;65200;49.500;8.654;2023-02-01T06:17:04;101054.00;;;4.47;91.59
76378;BME280;65200;49.500;8.654;2023-02-01T06:19:32;101059.03;;;4.50;91.60
76378;BME280;65200;49.500;8.654;2023-02-01T06:21:58;101064.03;;;4.44;92.30
76378;BME280;65200;49.500;8.654;2023-02-01T06:24:24;101073.25;;;4.49;92.80
76378;BME280;65200;49.500;8.654;2023-02-01T06:26:51;101065.69;;;4.45;92.55
76378;BME280;65200;49.500;8.654;2023-02-01T06:29:19;101061.53;;;4.42;92.46
76378;BME280;65200;49.500;8.654;2023-02-01T06:31:45;101062.75;;;4.38;92.70
76378;BME280;65200;49.500;8.654;2023-02-01T06:34:11;101046.25;;;4.35;92.48
76378;BME280;65200;49.500;8.654;2023-02-01T06:36:38;101056.44;;;4.39;91.98
76378;BME280;65200;49.500;8.654;2023-02-01T06:39:05;101063.31;;;4.42;92.19
76378;BME280;65200;49.500;8.654;2023-02-01T06:41:31;101070.88;;;4.46;91.10
76378;BME280;65200;49.500;8.654;2023-02-01T06:43:59;101062.34;;;4.43;92.98
76378;BME280;65200;49.500;8.654;2023-02-01T06:46:27;101064.69;;;4.36;92.68
76378;BME280;65200;49.500;8.654;2023-02-01T06:48:54;101066.13;;;4.40;93.45
76378;BME280;65200;49.500;8.654;2023-02-01T06:51:22;101063.59;;;4.39;92.76
76378;BME280;65200;49.500;8.654;2023-02-01T06:53:49;101069.84;;;4.38;92.94
76378;BME280;65200;49.500;8.654;2023-02-01T06:56:15;101083.13;;;4.38;92.45
76378;BME280;65200;49.500;8.654;2023-02-01T06:58:42;101075.03;;;4.39;91.95
76378;BME280;65200;49.500;8.654;2023-02-01T07:01:10;101091.09;;;4.38;93.41
76378;BME280;65200;49.500;8.654;2023-02-01T07:03:38;101088.28;;;4.39;92.09
76378;BME280;65200;49.500;8.654;2023-02-01T07:06:05;101079.91;;;4.34;92.67
76378;BME280;65200;49.500;8.654;2023-02-01T07:08:34;101077.00;;;4.37;92.11
76378;BME280;65200;49.500;8.654;2023-02-01T07:11:02;101082.16;;;4.39;91.93
76378;BME280;65200;49.500;8.654;2023-02-01T07:13:28;101077.44;;;4.42;91.23
76378;BME280;65200;49.500;8.654;2023-02-01T07:15:58;101075.22;;;4.47;91.45
76378;BME280;65200;49.500;8.654;2023-02-01T07:18:24;101077.16;;;4.45;92.44
76378;BME280;65200;49.500;8.654;2023-02-01T07:20:52;101076.19;;;4.46;92.05
76378;BME280;65200;49.500;8.654;2023-02-01T07:23:18;101085.44;;;4.52;91.13
76378;BME280;65200;49.500;8.654;2023-02-01T07:25:45;101075.63;;;4.52;91.22
76378;BME280;65200;49.500;8.654;2023-02-01T07:28:12;101076.19;;;4.46;90.98
76378;BME280;65200;49.500;8.654;2023-02-01T07:30:38;101071.88;;;4.45;91.65
76378;BME280;65200;49.500;8.654;2023-02-01T07:33:06;101069.84;;;4.38;91.99
76378;BME280;65200;49.500;8.654;2023-02-01T07:35:33;101074.63;;;4.34;91.66
76378;BME280;65200;49.500;8.654;2023-02-01T07:38:00;101081.31;;;4.38;90.79
76378;BME280;65200;49.500;8.654;2023-02-01T07:40:27;101068.50;;;4.43;91.06
76378;BME280;65200;49.500;8.654;2023-02-01T07:42:55;101082.63;;;4.44;91.30
76378;BME280;65200;49.500;8.654;2023-02-01T07:45:22;101098.41;;;4.45;91.82
76378;BME280;65200;49.500;8.654;2023-02-01T07:47:48;101104.41;;;4.47;92.08
76378;BME280;65200;49.500;8.654;2023-02-01T07:50:15;101095.47;;;4.48;91.36
76378;BME280;65200;49.500;8.654;2023-02-01T07:52:41;101095.34;;;4.50;91.64
76378;BME280;65200;49.500;8.654;2023-02-01T07:55:10;101099.22;;;4.46;90.29
76378;BME280;65200;49.500;8.654;2023-02-01T07:57:36;101099.78;;;4.49;91.62
76378;BME280;65200;49.500;8.654;2023-02-01T08:00:03;101102.75;;;4.56;90.51
76378;BME280;65200;49.500;8.654;2023-02-01T08:02:52;101118.31;;;4.60;89.26
76378;BME280;65200;49.500;8.654;2023-02-01T08:05:18;101130.19;;;4.66;89.93
76378;BME280;65200;49.500;8.654;2023-02-01T08:07:48;101131.75;;;4.68;88.39
76378;BME280;65200;49.500;8.654;2023-02-01T08:10:17;101137.06;;;4.68;88.49
76378;BME280;65200;49.500;8.654;2023-02-01T08:12:43;101140.41;;;4.70;88.67
76378;BME280;65200;49.500;8.654;2023-02-01T08:15:13;101137.75;;;4.70;88.76
76378;BME280;65200;49.500;8.654;2023-02-01T08:17:45;101142.69;;;4.75;87.43
76378;BME280;65200;49.500;8.654;2023-02-01T08:20:12;101150.22;;;4.79;87.15
76378;BME280;65200;49.500;8.654;2023-02-01T08:22:38;101149.97;;;4.82;87.98
76378;BME280;65200;49.500;8.654;2023-02-01T08:25:06;101139.78;;;4.87;86.74
76378;BME280;65200;49.500;8.654;2023-02-01T08:27:34;101155.88;;;4.95;87.54
76378;BME280;65200;49.500;8.654;2023-02-01T08:30:00;101154.88;;;4.96;86.81
76378;BME280;65200;49.500;8.654;2023-02-01T08:32:27;101155.91;;;5.05;85.67
76378;BME280;65200;49.500;8.654;2023-02-01T08:34:53;101157.84;;;5.03;86.82
76378;BME280;65200;49.500;8.654;2023-02-01T08:37:20;101167.09;;;5.08;85.28
76378;BME280;65200;49.500;8.654;2023-02-01T08:39:47;101161.81;;;5.18;82.64
76378;BME280;65200;49.500;8.654;2023-02-01T08:42:15;101161.56;;;5.30;82.51
76378;BME280;65200;49.500;8.654;2023-02-01T08:45:01;101153.16;;;5.25;83.95
76378;BME280;65200;49.500;8.654;2023-02-01T08:47:28;101140.56;;;5.27;83.78
76378;BME280;65200;49.500;8.654;2023-02-01T08:49:54;101152.19;;;5.26;83.84
76378;BME280;65200;49.500;8.654;2023-02-01T08:52:21;101146.88;;;5.26;83.21
76378;BME280;65200;49.500;8.654;2023-02-01T08:54:48;101143.94;;;5.29;83.53
76378;BME280;65200;49.500;8.654;2023-02-01T08:57:14;101154.28;;;5.32;84.77
76378;BME280;65200;49.500;8.654;2023-02-01T08:59:41;101157.38;;;5.37;84.61
76378;BME280;65200;49.500;8.654;2023-02-01T09:02:11;101160.75;;;5.39;83.35
76378;BME280;65200;49.500;8.654;2023-02-01T09:04:38;101156.81;;;5.43;83.35
76378;BME280;65200;49.500;8.654;2023-02-01T09:07:04;101158.81;;;5.51;82.97
76378;BME280;65200;49.500;8.654;2023-02-01T09:09:31;101154.31;;;5.61;82.17
76378;BME280;65200;49.500;8.654;2023-02-01T09:11:57;101165.22;;;5.68;81.93
76378;BME280;65200;49.500;8.654;2023-02-01T09:14:24;101161.03;;;5.75;81.89
76378;BME280;65200;49.500;8.654;2023-02-01T09:16:50;101172.25;;;5.78;82.31
76378;BME280;65200;49.500;8.654;2023-02-01T09:19:18;101160.59;;;5.79;80.55
76378;BME280;65200;49.500;8.654;2023-02-01T09:21:44;101168.22;;;5.84;81.81
76378;BME280;65200;49.500;8.654;2023-02-01T09:24:11;101159.50;;;5.82;81.75
76378;BME280;65200;49.500;8.654;2023-02-01T09:26:37;101157.72;;;5.82;81.57
76378;BME280;65200;49.500;8.654;2023-02-01T09:29:05;101166.06;;;5.78;81.94
76378;BME280;65200;49.500;8.654;2023-02-01T09:31:36;101167.78;;;5.79;82.01
76378;BME280;65200;49.500;8.654;2023-02-01T09:34:02;101176.72;;;5.78;81.75
76378;BME280;65200;49.500;8.654;2023-02-01T09:36:31;101174.19;;;5.76;80.56
76378;BME280;65200;49.500;8.654;2023-02-01T09:38:57;101178.88;;;5.84;79.79
76378;BME280;65200;49.500;8.654;2023-02-01T09:41:37;101170.16;;;5.91;80.03
76378;BME280;65200;49.500;8.654;2023-02-01T09:44:14;101174.25;;;5.95;79.07
76378;BME280;65200;49.500;8.654;2023-02-01T09:46:45;101168.50;;;6.00;80.05
76378;BME280;65200;49.500;8.654;2023-02-01T09:49:15;101192.16;;;6.03;78.89
76378;BME280;65200;49.500;8.654;2023-02-01T09:51:46;101187.81;;;5.92;79.45
76378;BME280;65200;49.500;8.654;2023-02-01T09:54:17;101204.75;;;6.01;78.99
76378;BME280;65200;49.500;8.654;2023-02-01T09:56:47;101210.63;;;6.04;77.76
76378;BME280;65200;49.500;8.654;2023-02-01T09:59:28;101206.97;;;6.05;77.38
76378;BME280;65200;49.500;8.654;2023-02-01T10:01:57;101219.47;;;6.05;77.28
76378;BME280;65200;49.500;8.654;2023-02-01T10:04:24;101223.38;;;6.01;76.93
76378;BME280;65200;49.500;8.654;2023-02-01T10:07:02;101229.84;;;5.98;76.61
76378;BME280;65200;49.500;8.654;2023-02-01T10:09:52;101238.53;;;6.10;75.24
76378;BME280;65200;49.500;8.654;2023-02-01T10:15:48;101236.53;;;6.02;74.99
76378;BME280;65200;49.500;8.654;2023-02-01T10:18:29;101232.50;;;5.98;75.41
76378;BME280;65200;49.500;8.654;2023-02-01T10:21:03;101234.16;;;5.90;76.75
76378;BME280;65200;49.500;8.654;2023-02-01T10:23:56;101231.63;;;5.98;75.36
76378;BME280;65200;49.500;8.654;2023-02-01T10:26:29;101235.28;;;5.97;74.84
76378;BME280;65200;49.500;8.654;2023-02-01T10:29:01;101227.03;;;6.00;74.63
76378;BME280;65200;49.500;8.654;2023-02-01T10:31:30;101229.13;;;6.06;74.43
76378;BME280;65200;49.500;8.654;2023-02-01T10:33:59;101237.25;;;6.04;74.75
76378;BME280;65200;49.500;8.654;2023-02-01T10:36:29;101232.22;;;6.01;74.75
76378;BME280;65200;49.500;8.654;2023-02-01T10:38:58;101227.16;;;5.98;74.97
76378;BME280;65200;49.500;8.654;2023-02-01T10:41:31;101233.72;;;6.04;74.05
76378;BME280;65200;49.500;8.654;2023-02-01T10:44:00;101228.84;;;6.09;73.85
76378;BME280;65200;49.500;8.654;2023-02-01T10:46:29;101233.19;;;6.19;72.30
76378;BME280;65200;49.500;8.654;2023-02-01T10:48:56;101217.91;;;6.21;72.27
76378;BME280;65200;49.500;8.654;2023-02-01T10:51:28;101214.84;;;6.16;73.08
76378;BME280;65200;49.500;8.654;2023-02-01T10:54:00;101217.78;;;6.04;74.39
76378;BME280;65200;49.500;8.654;2023-02-01T10:56:29;101219.03;;;6.09;73.21
76378;BME280;65200;49.500;8.654;2023-02-01T10:59:00;101220.16;;;6.16;72.93
76378;BME280;65200;49.500;8.654;2023-02-01T11:01:30;101206.59;;;6.10;73.04
76378;BME280;65200;49.500;8.654;2023-02-01T11:03:58;101206.72;;;6.18;71.70
76378;BME280;65200;49.500;8.654;2023-02-01T11:06:27;101193.81;;;6.23;72.30
76378;BME280;65200;49.500;8.654;2023-02-01T11:08:55;101187.50;;;6.24;71.39
76378;BME280;65200;49.500;8.654;2023-02-01T11:11:24;101175.06;;;6.24;71.61
76378;BME280;65200;49.500;8.654;2023-02-01T11:13:54;101169.47;;;6.18;72.95
76378;BME280;65200;49.500;8.654;2023-02-01T11:16:20;101168.75;;;6.16;72.52
76378;BME280;65200;49.500;8.654;2023-02-01T11:18:52;101165.09;;;6.17;72.59
76378;BME280;65200;49.500;8.654;2023-02-01T11:21:20;101159.63;;;6.18;71.12
76378;BME280;65200;49.500;8.654;2023-02-01T11:23:47;101170.28;;;6.18;71.88
76378;BME280;65200;49.500;8.654;2023-02-01T11:26:19;101161.88;;;6.23;72.38
76378;BME280;65200;49.500;8.654;2023-02-01T11:28:51;101159.22;;;6.23;71.63
76378;BME280;65200;49.500;8.654;2023-02-01T11:31:19;101153.75;;;6.24;71.31
76378;BME280;65200;49.500;8.654;2023-02-01T11:33:50;101155.44;;;6.25;71.34
76378;BME280;65200;49.500;8.654;2023-02-01T11:36:18;101153.75;;;6.24;71.04
76378;BME280;65200;49.500;8.654;2023-02-01T11:38:51;101151.25;;;6.23;72.01
76378;BME280;65200;49.500;8.654;2023-02-01T11:41:22;101163.84;;;6.21;71.39
76378;BME280;65200;49.500;8.654;2023-02-01T11:43:55;101158.09;;;6.25;71.17
76378;BME280;65200;49.500;8.654;2023-02-01T11:46:26;101159.91;;;6.25;70.88
76378;BME280;65200;49.500;8.654;2023-02-01T11:48:55;101164.53;;;6.32;69.55
76378;BME280;65200;49.500;8.654;2023-02-01T11:51:40;101152.44;;;6.38;69.04
76378;BME280;65200;49.500;8.654;2023-02-01T11:54:23;101155.66;;;6.41;68.73
76378;BME280;65200;49.500;8.654;2023-02-01T11:57:01;101142.47;;;6.49;68.10
76378;BME280;65200;49.500;8.654;2023-02-01T11:59:54;101151.16;;;6.51;68.98
76378;BME280;65200;49.500;8.654;2023-02-01T12:05:47;101148.25;;;6.35;70.36
76378;BME280;65200;49.500;8.654;2023-02-01T12:08:26;101152.44;;;6.38;70.48
76378;BME280;65200;49.500;8.654;2023-02-01T12:11:14;101144.75;;;6.35;71.29
76378;BME280;65200;49.500;8.654;2023-02-01T12:13:53;101153.31;;;6.29;71.65
76378;BME280;65200;49.500;8.654;2023-02-01T12:16:30;101151.91;;;6.25;71.71
76378;BME280;65200;49.500;8.654;2023-02-01T12:19:16;101150.94;;;6.26;72.02
76378;BME280;65200;49.500;8.654;2023-02-01T12:21:55;101148.44;;;6.24;71.49
76378;BME280;65200;49.500;8.654;2023-02-01T12:24:48;101151.78;;;6.26;71.11
76378;BME280;65200;49.500;8.654;2023-02-01T12:27:44;101144.63;;;6.27;70.98
76378;BME280;65200;49.500;8.654;2023-02-01T12:33:27;101149.53;;;6.22;71.53
76378;BME280;65200;49.500;8.654;2023-02-01T12:36:08;101151.78;;;6.26;71.70
76378;BME280;65200;49.500;8.654;2023-02-01T12:39:09;101146.44;;;6.36;71.52
76378;BME280;65200;49.500;8.654;2023-02-01T12:41:49;101144.47;;;6.38;70.89
76378;BME280;65200;49.500;8.654;2023-02-01T12:44:40;101137.31;;;6.38;70.88
76378;BME280;65200;49.500;8.654;2023-02-01T12:47:17;101117.69;;;6.39;69.52
76378;BME280;65200;49.500;8.654;2023-02-01T12:49:50;101120.09;;;6.33;70.92
76378;BME280;65200;49.500;8.654;2023-02-01T12:52:20;101110.84;;;6.37;69.50
76378;BME280;65200;49.500;8.654;2023-02-01T12:54:55;101110.00;;;6.36;70.00
76378;BME280;65200;49.500;8.654;2023-02-01T12:57:27;101117.84;;;6.38;70.93
76378;BME280;65200;49.500;8.654;2023-02-01T13:00:02;101112.81;;;6.35;70.06
76378;BME280;65200;49.500;8.654;2023-02-01T13:02:37;101103.84;;;6.36;69.47
76378;BME280;65200;49.500;8.654;2023-02-01T13:05:14;101108.31;;;6.35;69.47
76378;BME280;65200;49.500;8.654;2023-02-01T13:07:45;101107.38;;;6.27;70.44
76378;BME280;65200;49.500;8.654;2023-02-01T13:10:18;101103.59;;;6.29;69.51
76378;BME280;65200;49.500;8.654;2023-02-01T13:12:51;101098.97;;;6.22;71.00
76378;BME280;65200;49.500;8.654;2023-02-01T13:15:24;101112.56;;;6.19;71.75
76378;BME280;65200;49.500;8.654;2023-02-01T13:17:52;101102.38;;;6.14;72.59
76378;BME280;65200;49.500;8.654;2023-02-01T13:20:25;101112.16;;;6.14;71.93
76378;BME280;65200;49.500;8.654;2023-02-01T13:22:58;101099.00;;;6.12;70.89
76378;BME280;65200;49.500;8.654;2023-02-01T13:25:31;101088.91;;;6.16;70.54
76378;BME280;65200;49.500;8.654;2023-02-01T13:28:04;101078.28;;;6.16;71.06
76378;BME280;65200;49.500;8.654;2023-02-01T13:30:42;101081.22;;;6.13;71.98